Time;durP1;ratioP1;P1;durP2;ratioP2;P2;SDS_P1;SDS_P2;PMS_P1;PMS_P2;Temp;Humidity;BMP_temperature;BMP_pressure;BME280_temperature;BME280_humidity;BME280_pressure;Samples;Min_cycle;Max_cycle;Signal;HPM_P1;HPM_P2
2022/01/06 00:01:25;;;;;;;;;;;21.90;36.50;;;;;;482254;246;1350;-47
2022/01/06 00:03:27;;;;;;;;;;;22.00;36.50;;;;;;482651;246;1291;-46
2022/01/06 00:05:29;;;;;;;;;;;22.00;36.50;;;;;;482474;246;1465;-46
2022/01/06 00:07:30;;;;;;;;;;;22.00;36.50;;;;;;482154;246;1135;-46
2022/01/06 00:09:31;;;;;;;;;;;22.00;36.40;;;;;;482710;246;1036;-47
2022/01/06 00:11:32;;;;;;;;;;;22.00;36.40;;;;;;482188;246;2193;-46
2022/01/06 00:13:45;;;;;;;;;;;22.00;36.40;;;;;;482357;246;1217;-46
2022/01/06 00:15:41;;;;;;;;;;;22.00;36.30;;;;;;481658;247;2357;-47
2022/01/06 00:17:45;;;;;;;;;;;22.10;36.40;;;;;;482085;247;1871;-47
2022/01/06 00:24:19;;;;;;;;;;;22.10;36.30;;;;;;482285;247;1273;-47
2022/01/06 00:26:21;;;;;;;;;;;22.20;36.30;;;;;;482659;246;1166;-47
2022/01/06 00:28:22;;;;;;;;;;;22.20;36.20;;;;;;482633;246;1057;-46
2022/01/06 00:30:24;;;;;;;;;;;22.20;36.20;;;;;;482249;246;1122;-47
2022/01/06 00:32:24;;;;;;;;;;;22.20;36.20;;;;;;482200;246;2582;-47
2022/01/06 00:34:26;;;;;;;;;;;22.20;36.20;;;;;;482464;246;1189;-47
2022/01/06 00:36:27;;;;;;;;;;;22.20;36.20;;;;;;482594;246;1357;-46
2022/01/06 00:38:29;;;;;;;;;;;22.20;36.10;;;;;;482225;246;1307;-47
2022/01/06 00:40:30;;;;;;;;;;;22.20;36.10;;;;;;482716;246;1079;-46
2022/01/06 00:42:31;;;;;;;;;;;22.20;36.10;;;;;;482709;246;1167;-46
2022/01/06 00:44:32;;;;;;;;;;;22.20;36.10;;;;;;482771;246;1044;-47
2022/01/06 00:46:34;;;;;;;;;;;22.30;36.10;;;;;;482330;246;1684;-47
2022/01/06 00:48:35;;;;;;;;;;;22.30;36.10;;;;;;482360;246;1116;-47
2022/01/06 00:50:36;;;;;;;;;;;22.30;36.10;;;;;;482326;246;1026;-47
2022/01/06 00:52:38;;;;;;;;;;;22.30;36.00;;;;;;482703;246;2125;-47
2022/01/06 00:54:39;;;;;;;;;;;22.30;36.00;;;;;;482739;246;1060;-47
2022/01/06 00:56:40;;;;;;;;;;;22.40;36.10;;;;;;482359;246;1154;-46
2022/01/06 00:58:42;;;;;;;;;;;22.30;36.00;;;;;;482317;246;1095;-46
2022/01/06 01:00:43;;;;;;;;;;;22.30;36.00;;;;;;482555;246;1180;-47
2022/01/06 01:02:44;;;;;;;;;;;22.40;36.00;;;;;;482536;246;1137;-47
2022/01/06 01:04:45;;;;;;;;;;;22.40;36.00;;;;;;482777;246;1185;-47
2022/01/06 01:06:47;;;;;;;;;;;22.40;36.00;;;;;;482563;246;1295;-47
2022/01/06 01:08:48;;;;;;;;;;;22.40;36.00;;;;;;482662;246;1052;-46
2022/01/06 01:10:49;;;;;;;;;;;22.40;36.00;;;;;;482318;246;1454;-47
2022/01/06 01:12:51;;;;;;;;;;;22.40;36.00;;;;;;482584;246;2130;-47
2022/01/06 01:14:56;;;;;;;;;;;22.40;35.90;;;;;;482737;246;1198;-46
2022/01/06 01:16:57;;;;;;;;;;;22.40;35.90;;;;;;481952;247;1577;-47
2022/01/06 01:18:57;;;;;;;;;;;22.40;36.00;;;;;;482139;247;1927;-47
2022/01/06 01:20:58;;;;;;;;;;;22.40;35.90;;;;;;482731;246;1203;-47
2022/01/06 01:22:59;;;;;;;;;;;22.50;35.90;;;;;;482607;246;1350;-46
2022/01/06 01:25:01;;;;;;;;;;;22.50;35.90;;;;;;482642;246;1044;-46
2022/01/06 01:27:02;;;;;;;;;;;22.50;35.90;;;;;;482633;246;1561;-47
2022/01/06 01:29:03;;;;;;;;;;;22.50;35.90;;;;;;482335;246;1092;-47
2022/01/06 01:31:19;;;;;;;;;;;22.50;35.90;;;;;;482561;246;1317;-47
2022/01/06 01:33:14;;;;;;;;;;;22.50;35.90;;;;;;481323;247;2883;-47
2022/01/06 01:35:08;;;;;;;;;;;22.50;35.80;;;;;;482133;247;2155;-47
2022/01/06 01:37:08;;;;;;;;;;;22.50;35.80;;;;;;482227;246;2517;-47
2022/01/06 01:39:10;;;;;;;;;;;22.50;35.80;;;;;;482723;246;1224;-47
2022/01/06 01:41:11;;;;;;;;;;;22.50;35.80;;;;;;482382;246;1122;-47
2022/01/06 01:43:13;;;;;;;;;;;22.50;35.80;;;;;;482405;246;1182;-46
2022/01/06 01:45:16;;;;;;;;;;;22.50;35.80;;;;;;482685;246;1467;-47
2022/01/06 01:47:16;;;;;;;;;;;22.60;35.90;;;;;;482097;247;2555;-47
2022/01/06 01:49:30;;;;;;;;;;;22.50;35.80;;;;;;482705;246;2225;-47
2022/01/06 01:51:18;;;;;;;;;;;22.60;35.90;;;;;;481451;247;2337;-47
2022/01/06 01:53:20;;;;;;;;;;;22.60;35.90;;;;;;482449;246;2142;-47
2022/01/06 01:55:21;;;;;;;;;;;22.60;35.90;;;;;;482288;246;1475;-47
2022/01/06 01:57:22;;;;;;;;;;;22.60;35.90;;;;;;482420;246;1225;-47
2022/01/06 01:59:24;;;;;;;;;;;22.60;35.80;;;;;;482376;246;1060;-47
2022/01/06 02:01:25;;;;;;;;;;;22.60;35.80;;;;;;482223;246;1375;-47
2022/01/06 02:03:26;;;;;;;;;;;22.60;35.90;;;;;;482261;246;1120;-47
2022/01/06 02:05:28;;;;;;;;;;;22.60;35.80;;;;;;482309;246;1104;-46
2022/01/06 02:07:29;;;;;;;;;;;22.60;35.80;;;;;;482324;247;2341;-46
2022/01/06 02:09:30;;;;;;;;;;;22.60;35.80;;;;;;482734;246;1064;-47
2022/01/06 02:11:31;;;;;;;;;;;22.60;35.80;;;;;;482656;246;1339;-47
2022/01/06 02:13:33;;;;;;;;;;;22.60;35.80;;;;;;482286;246;2216;-46
2022/01/06 02:15:34;;;;;;;;;;;22.60;35.80;;;;;;482312;246;1096;-47
2022/01/06 02:17:36;;;;;;;;;;;22.60;35.80;;;;;;482240;246;1241;-47
2022/01/06 02:19:37;;;;;;;;;;;22.60;35.80;;;;;;482340;246;1725;-47
2022/01/06 02:21:38;;;;;;;;;;;22.60;35.80;;;;;;482423;246;1368;-46
2022/01/06 02:23:39;;;;;;;;;;;22.70;35.80;;;;;;482585;246;1095;-46
2022/01/06 02:25:41;;;;;;;;;;;22.70;35.80;;;;;;482309;246;1467;-47
2022/01/06 02:27:42;;;;;;;;;;;22.70;35.80;;;;;;482288;246;1128;-47
2022/01/06 02:29:43;;;;;;;;;;;22.70;35.80;;;;;;482274;246;1080;-47
2022/01/06 02:31:46;;;;;;;;;;;22.70;35.70;;;;;;482414;246;1342;-47
2022/01/06 02:33:48;;;;;;;;;;;22.70;35.80;;;;;;482225;247;2177;-46
2022/01/06 02:35:48;;;;;;;;;;;22.70;35.80;;;;;;482665;247;2059;-46
2022/01/06 02:37:49;;;;;;;;;;;22.70;35.70;;;;;;482231;246;1283;-46
2022/01/06 02:39:51;;;;;;;;;;;22.70;35.80;;;;;;482734;246;1074;-47
2022/01/06 02:41:52;;;;;;;;;;;22.70;35.70;;;;;;482468;246;1484;-47
2022/01/06 02:43:55;;;;;;;;;;;22.70;35.70;;;;;;482241;246;1322;-47
2022/01/06 02:45:54;;;;;;;;;;;22.70;35.70;;;;;;482253;246;2203;-47
2022/01/06 02:47:56;;;;;;;;;;;22.70;35.80;;;;;;482284;246;1234;-47
2022/01/06 02:49:57;;;;;;;;;;;22.70;35.70;;;;;;482510;246;1052;-47
2022/01/06 02:51:58;;;;;;;;;;;22.70;35.70;;;;;;482272;246;1324;-47
2022/01/06 02:54:00;;;;;;;;;;;22.70;35.70;;;;;;482301;246;2126;-47
2022/01/06 02:56:01;;;;;;;;;;;22.70;35.70;;;;;;482209;246;1271;-47
2022/01/06 02:58:02;;;;;;;;;;;22.70;35.70;;;;;;482230;246;1064;-47
2022/01/06 03:00:04;;;;;;;;;;;22.70;35.70;;;;;;482771;246;1063;-47
2022/01/06 03:02:05;;;;;;;;;;;22.70;35.70;;;;;;482227;246;1227;-46
2022/01/06 03:04:06;;;;;;;;;;;22.70;35.70;;;;;;482526;246;1055;-47
2022/01/06 03:06:08;;;;;;;;;;;22.80;35.70;;;;;;482467;246;1509;-47
2022/01/06 03:08:09;;;;;;;;;;;22.80;35.70;;;;;;482254;246;1154;-47
2022/01/06 03:10:13;;;;;;;;;;;22.80;35.70;;;;;;482714;246;1263;-46
2022/01/06 03:12:20;;;;;;;;;;;22.80;35.70;;;;;;482092;247;2199;-47
2022/01/06 03:14:13;;;;;;;;;;;22.80;35.70;;;;;;481981;247;2222;-47
2022/01/06 03:16:14;;;;;;;;;;;22.80;35.70;;;;;;482242;246;1298;-47
2022/01/06 03:18:16;;;;;;;;;;;22.80;35.70;;;;;;482262;246;1244;-47
2022/01/06 03:20:17;;;;;;;;;;;22.80;35.70;;;;;;482621;246;1475;-47
2022/01/06 03:22:18;;;;;;;;;;;22.80;35.70;;;;;;482298;246;1216;-46
2022/01/06 03:24:20;;;;;;;;;;;22.80;35.70;;;;;;482729;246;1117;-47
2022/01/06 03:26:21;;;;;;;;;;;22.80;35.70;;;;;;482268;246;1672;-47
2022/01/06 03:28:22;;;;;;;;;;;22.80;35.70;;;;;;482756;246;1020;-46
2022/01/06 03:30:23;;;;;;;;;;;22.80;35.70;;;;;;482261;246;1522;-47
2022/01/06 03:32:25;;;;;;;;;;;22.80;35.60;;;;;;482332;246;1431;-46
2022/01/06 03:34:26;;;;;;;;;;;22.80;35.60;;;;;;482692;246;2184;-47
2022/01/06 03:36:27;;;;;;;;;;;22.80;35.70;;;;;;482381;246;1217;-47
2022/01/06 03:38:29;;;;;;;;;;;22.80;35.70;;;;;;482238;246;1192;-46
2022/01/06 03:40:30;;;;;;;;;;;22.80;35.80;;;;;;482260;246;1147;-47
2022/01/06 03:42:32;;;;;;;;;;;22.70;35.90;;;;;;482364;246;1211;-47
2022/01/06 03:44:33;;;;;;;;;;;22.50;36.10;;;;;;482397;246;1073;-46
2022/01/06 03:46:34;;;;;;;;;;;22.30;36.50;;;;;;482368;246;1392;-46
2022/01/06 03:48:36;;;;;;;;;;;22.10;37.00;;;;;;482310;246;1216;-46
2022/01/06 03:50:37;;;;;;;;;;;21.90;37.40;;;;;;482622;246;1234;-46
2022/01/06 03:52:38;;;;;;;;;;;21.70;37.60;;;;;;482237;246;1321;-47
2022/01/06 03:54:40;;;;;;;;;;;21.70;37.80;;;;;;482496;246;2118;-46
2022/01/06 03:56:41;;;;;;;;;;;21.70;37.90;;;;;;482391;246;1222;-45
2022/01/06 03:58:42;;;;;;;;;;;21.60;38.00;;;;;;482549;246;1151;-46
2022/01/06 04:00:43;;;;;;;;;;;21.50;38.00;;;;;;482242;246;1277;-46
2022/01/06 04:02:45;;;;;;;;;;;21.50;38.20;;;;;;482218;246;1191;-46
2022/01/06 04:04:46;;;;;;;;;;;21.40;38.20;;;;;;482319;246;1067;-47
2022/01/06 04:06:47;;;;;;;;;;;21.40;38.20;;;;;;482462;246;1384;-46
2022/01/06 04:08:49;;;;;;;;;;;21.40;38.40;;;;;;482690;246;1119;-46
2022/01/06 04:10:50;;;;;;;;;;;21.30;38.50;;;;;;482291;246;1507;-47
2022/01/06 04:12:51;;;;;;;;;;;21.30;38.50;;;;;;482218;246;1222;-46
2022/01/06 04:14:53;;;;;;;;;;;21.30;38.50;;;;;;482306;246;2253;-47
2022/01/06 04:16:59;;;;;;;;;;;21.20;38.50;;;;;;482143;246;1393;-47
2022/01/06 04:18:56;;;;;;;;;;;21.20;38.60;;;;;;482094;247;1285;-46
2022/01/06 04:20:57;;;;;;;;;;;21.20;38.60;;;;;;482689;246;1166;-46
2022/01/06 04:22:59;;;;;;;;;;;21.10;38.70;;;;;;482270;246;1123;-46
2022/01/06 04:25:00;;;;;;;;;;;21.10;38.80;;;;;;482767;246;1066;-46
2022/01/06 04:27:02;;;;;;;;;;;21.10;38.90;;;;;;482255;246;1313;-47
2022/01/06 04:29:03;;;;;;;;;;;21.10;38.80;;;;;;482668;246;1026;-47
2022/01/06 04:31:04;;;;;;;;;;;21.10;38.90;;;;;;482722;246;1214;-46
2022/01/06 04:33:06;;;;;;;;;;;21.10;38.90;;;;;;482277;246;2153;-46
2022/01/06 04:35:07;;;;;;;;;;;21.00;38.90;;;;;;482312;246;1095;-46
2022/01/06 04:37:08;;;;;;;;;;;21.00;38.90;;;;;;482453;246;1342;-47
2022/01/06 04:39:10;;;;;;;;;;;21.00;38.80;;;;;;482534;246;964;-46
2022/01/06 04:41:11;;;;;;;;;;;21.00;38.90;;;;;;482723;246;1401;-46
2022/01/06 04:43:12;;;;;;;;;;;21.00;39.00;;;;;;482286;246;1063;-47
2022/01/06 04:45:14;;;;;;;;;;;21.00;39.00;;;;;;482321;246;1163;-47
2022/01/06 04:47:15;;;;;;;;;;;20.90;39.00;;;;;;482226;246;1226;-46
2022/01/06 04:49:16;;;;;;;;;;;20.90;39.00;;;;;;482356;246;1282;-47
2022/01/06 04:51:17;;;;;;;;;;;21.00;39.10;;;;;;482267;246;1461;-46
2022/01/06 04:53:19;;;;;;;;;;;20.90;39.00;;;;;;482693;246;2204;-46
2022/01/06 04:55:20;;;;;;;;;;;20.90;39.10;;;;;;482283;246;1074;-47
2022/01/06 04:57:22;;;;;;;;;;;21.00;39.00;;;;;;482267;246;1197;-47
2022/01/06 04:59:23;;;;;;;;;;;20.90;39.00;;;;;;482270;246;1798;-46
2022/01/06 05:01:24;;;;;;;;;;;20.90;39.20;;;;;;482299;246;1389;-46
2022/01/06 05:03:25;;;;;;;;;;;20.80;39.20;;;;;;482470;246;1130;-46
2022/01/06 05:05:27;;;;;;;;;;;20.80;39.20;;;;;;482701;246;1058;-46
2022/01/06 05:07:28;;;;;;;;;;;20.80;39.30;;;;;;482469;246;1142;-46
2022/01/06 05:09:29;;;;;;;;;;;20.90;39.20;;;;;;482750;246;1073;-47
2022/01/06 05:11:31;;;;;;;;;;;20.80;39.20;;;;;;482212;246;1177;-46
2022/01/06 05:13:32;;;;;;;;;;;20.80;39.30;;;;;;482390;246;2192;-46
2022/01/06 05:15:33;;;;;;;;;;;20.80;39.30;;;;;;482283;246;1166;-46
2022/01/06 05:17:35;;;;;;;;;;;20.80;39.30;;;;;;482235;246;1238;-46
2022/01/06 05:19:36;;;;;;;;;;;20.80;39.30;;;;;;482336;246;1079;-46
2022/01/06 05:21:37;;;;;;;;;;;20.80;39.30;;;;;;482639;246;1207;-47
2022/01/06 05:23:40;;;;;;;;;;;20.70;39.30;;;;;;482243;246;1068;-46
2022/01/06 05:25:40;;;;;;;;;;;20.80;39.30;;;;;;482214;247;2333;-46
2022/01/06 05:27:41;;;;;;;;;;;20.70;39.30;;;;;;482504;246;1195;-47
2022/01/06 05:29:43;;;;;;;;;;;20.70;39.40;;;;;;482558;246;1053;-46
2022/01/06 05:31:44;;;;;;;;;;;20.70;39.30;;;;;;482297;244;1726;-47
2022/01/06 05:33:47;;;;;;;;;;;20.70;39.40;;;;;;482356;246;2200;-46
2022/01/06 05:35:47;;;;;;;;;;;20.70;39.40;;;;;;482411;246;2290;-46
2022/01/06 05:37:48;;;;;;;;;;;20.70;39.40;;;;;;482231;246;1245;-46
2022/01/06 05:39:49;;;;;;;;;;;20.70;39.40;;;;;;482536;246;1042;-46
2022/01/06 05:41:51;;;;;;;;;;;20.70;39.40;;;;;;482494;246;1123;-46
2022/01/06 05:43:52;;;;;;;;;;;20.60;39.50;;;;;;482474;246;1428;-46
2022/01/06 05:45:55;;;;;;;;;;;20.60;39.40;;;;;;482719;246;1301;-46
2022/01/06 05:47:55;;;;;;;;;;;20.60;39.50;;;;;;482604;247;2412;-46
2022/01/06 05:49:56;;;;;;;;;;;20.70;39.50;;;;;;482556;246;1062;-47
2022/01/06 05:51:57;;;;;;;;;;;20.70;39.40;;;;;;482224;246;1179;-46
2022/01/06 05:53:58;;;;;;;;;;;20.60;39.30;;;;;;482337;246;2117;-46
2022/01/06 05:56:00;;;;;;;;;;;20.70;39.40;;;;;;482709;246;1279;-46
2022/01/06 05:58:02;;;;;;;;;;;20.70;39.40;;;;;;482267;246;1237;-46
2022/01/06 06:00:03;;;;;;;;;;;20.60;39.40;;;;;;482666;246;959;-46
2022/01/06 06:02:05;;;;;;;;;;;20.60;39.50;;;;;;482389;246;1613;-46
2022/01/06 06:04:07;;;;;;;;;;;20.60;39.50;;;;;;482305;246;1238;-46
2022/01/06 06:06:08;;;;;;;;;;;20.60;39.50;;;;;;482499;246;1191;-46
2022/01/06 06:08:09;;;;;;;;;;;20.60;39.40;;;;;;482270;246;1074;-46
2022/01/06 06:10:11;;;;;;;;;;;20.60;39.40;;;;;;482507;246;1045;-46
2022/01/06 06:12:12;;;;;;;;;;;20.60;39.40;;;;;;482259;246;1261;-46
2022/01/06 06:14:13;;;;;;;;;;;20.60;39.50;;;;;;482510;246;2129;-47
2022/01/06 06:16:15;;;;;;;;;;;20.60;39.40;;;;;;482375;246;1245;-47
2022/01/06 06:18:16;;;;;;;;;;;20.60;39.40;;;;;;482671;246;1191;-46
2022/01/06 06:20:17;;;;;;;;;;;20.50;39.50;;;;;;482712;246;1039;-46
2022/01/06 06:22:19;;;;;;;;;;;20.50;39.50;;;;;;482335;246;1235;-46
2022/01/06 06:24:22;;;;;;;;;;;20.60;39.50;;;;;;482472;246;1206;-46
2022/01/06 06:26:21;;;;;;;;;;;20.50;39.50;;;;;;482552;243;1821;-46
2022/01/06 06:28:22;;;;;;;;;;;20.50;39.50;;;;;;482720;246;1102;-46
2022/01/06 06:30:24;;;;;;;;;;;20.50;39.40;;;;;;482777;246;1113;-46
2022/01/06 06:32:27;;;;;;;;;;;20.50;39.40;;;;;;482226;246;1160;-46
2022/01/06 06:34:27;;;;;;;;;;;20.50;39.50;;;;;;482242;246;2152;-47
2022/01/06 06:36:28;;;;;;;;;;;20.50;39.50;;;;;;482519;246;1503;-46
2022/01/06 06:38:29;;;;;;;;;;;20.50;39.50;;;;;;482263;246;1094;-46
2022/01/06 06:40:31;;;;;;;;;;;20.50;39.50;;;;;;482412;246;1036;-46
2022/01/06 06:42:32;;;;;;;;;;;20.50;39.60;;;;;;482694;246;1286;-46
2022/01/06 06:44:33;;;;;;;;;;;20.50;39.60;;;;;;482754;246;1190;-46
2022/01/06 06:46:34;;;;;;;;;;;20.50;39.50;;;;;;482696;243;1206;-47
2022/01/06 06:48:36;;;;;;;;;;;20.50;39.50;;;;;;482264;246;1342;-46
2022/01/06 06:50:37;;;;;;;;;;;20.50;39.50;;;;;;482273;246;1047;-46
2022/01/06 06:52:38;;;;;;;;;;;20.50;39.50;;;;;;482493;246;1230;-47
2022/01/06 06:54:40;;;;;;;;;;;20.50;39.50;;;;;;482511;246;2177;-46
2022/01/06 06:56:41;;;;;;;;;;;20.50;39.60;;;;;;482430;246;1242;-46
2022/01/06 06:58:42;;;;;;;;;;;20.40;39.60;;;;;;482485;246;1219;-46
2022/01/06 07:00:44;;;;;;;;;;;20.50;39.70;;;;;;482267;246;1221;-47
2022/01/06 07:02:45;;;;;;;;;;;20.40;39.60;;;;;;482626;246;1127;-46
2022/01/06 07:04:46;;;;;;;;;;;20.50;39.60;;;;;;482537;246;1193;-47
2022/01/06 07:06:48;;;;;;;;;;;20.50;39.60;;;;;;482226;246;1421;-46
2022/01/06 07:08:49;;;;;;;;;;;20.50;39.50;;;;;;482332;246;1127;-47
2022/01/06 07:10:50;;;;;;;;;;;20.50;39.60;;;;;;482574;246;1436;-46
2022/01/06 07:12:52;;;;;;;;;;;20.50;39.60;;;;;;482279;246;1205;-46
2022/01/06 07:14:53;;;;;;;;;;;20.50;39.60;;;;;;482275;246;2133;-46
2022/01/06 07:16:54;;;;;;;;;;;20.50;39.60;;;;;;482090;246;1450;-46
2022/01/06 07:18:56;;;;;;;;;;;20.50;39.50;;;;;;482556;246;1287;-46
2022/01/06 07:20:57;;;;;;;;;;;20.50;39.50;;;;;;482583;246;1525;-46
2022/01/06 07:22:58;;;;;;;;;;;20.50;39.50;;;;;;482264;246;1204;-46
2022/01/06 07:25:01;;;;;;;;;;;20.40;39.50;;;;;;482290;246;1218;-46
2022/01/06 07:27:01;;;;;;;;;;;20.50;39.50;;;;;;482222;246;2332;-46
2022/01/06 07:29:02;;;;;;;;;;;20.50;39.50;;;;;;482479;246;1126;-46
2022/01/06 07:31:04;;;;;;;;;;;20.50;39.40;;;;;;482488;246;1414;-46
2022/01/06 07:33:05;;;;;;;;;;;20.50;39.40;;;;;;482638;246;1170;-46
2022/01/06 07:35:07;;;;;;;;;;;20.50;39.40;;;;;;482466;246;2216;-46
2022/01/06 07:37:08;;;;;;;;;;;20.40;39.40;;;;;;482231;246;1197;-46
2022/01/06 07:39:09;;;;;;;;;;;20.40;39.40;;;;;;482399;246;1153;-46
2022/01/06 07:41:11;;;;;;;;;;;20.40;39.30;;;;;;482291;246;1169;-46
2022/01/06 07:43:12;;;;;;;;;;;20.50;39.30;;;;;;482476;246;1147;-46
2022/01/06 07:45:13;;;;;;;;;;;20.40;39.30;;;;;;482754;246;1074;-46
2022/01/06 07:47:15;;;;;;;;;;;20.40;39.30;;;;;;482648;243;1688;-46
2022/01/06 07:49:16;;;;;;;;;;;20.40;39.40;;;;;;482683;246;1312;-46
2022/01/06 07:51:17;;;;;;;;;;;20.40;39.30;;;;;;482291;246;1177;-47
2022/01/06 07:53:19;;;;;;;;;;;20.40;39.20;;;;;;482527;246;1107;-47
2022/01/06 07:55:20;;;;;;;;;;;20.40;39.20;;;;;;482723;246;2134;-46
2022/01/06 07:57:21;;;;;;;;;;;20.40;39.20;;;;;;482231;246;1254;-46
2022/01/06 07:59:23;;;;;;;;;;;20.40;39.20;;;;;;482308;246;1070;-46
2022/01/06 08:01:24;;;;;;;;;;;20.40;39.30;;;;;;482461;246;1576;-47
2022/01/06 08:03:25;;;;;;;;;;;20.40;39.20;;;;;;482337;246;1057;-46
2022/01/06 08:05:27;;;;;;;;;;;20.40;39.20;;;;;;482317;246;1223;-46
2022/01/06 08:07:28;;;;;;;;;;;20.40;39.10;;;;;;482507;246;2364;-46
2022/01/06 08:09:29;;;;;;;;;;;20.40;39.10;;;;;;482428;246;1041;-47
2022/01/06 08:11:30;;;;;;;;;;;20.40;39.10;;;;;;482447;246;1408;-46
2022/01/06 08:13:32;;;;;;;;;;;20.40;39.10;;;;;;482315;246;1068;-46
2022/01/06 08:15:33;;;;;;;;;;;20.40;39.00;;;;;;482693;246;2193;-46
2022/01/06 08:17:36;;;;;;;;;;;20.40;39.10;;;;;;482215;246;1497;-46
2022/01/06 08:19:36;;;;;;;;;;;20.40;39.10;;;;;;482200;246;2215;-46
2022/01/06 08:21:37;;;;;;;;;;;20.40;39.00;;;;;;482197;246;1417;-46
2022/01/06 08:23:39;;;;;;;;;;;20.40;39.00;;;;;;482401;246;1086;-46
2022/01/06 08:25:40;;;;;;;;;;;20.40;39.00;;;;;;482688;246;1297;-47
2022/01/06 08:27:41;;;;;;;;;;;20.40;39.00;;;;;;482661;246;1232;-46
2022/01/06 08:29:42;;;;;;;;;;;20.40;39.00;;;;;;482698;246;1018;-46
2022/01/06 08:31:44;;;;;;;;;;;20.40;38.90;;;;;;482416;246;1392;-46
2022/01/06 08:33:45;;;;;;;;;;;20.30;39.00;;;;;;482462;246;1072;-46
2022/01/06 08:35:47;;;;;;;;;;;20.40;39.00;;;;;;482437;246;2200;-46
2022/01/06 08:37:47;;;;;;;;;;;20.40;39.00;;;;;;482352;246;2198;-46
2022/01/06 08:39:49;;;;;;;;;;;20.40;38.90;;;;;;482282;246;986;-46
2022/01/06 08:41:50;;;;;;;;;;;20.40;39.00;;;;;;482625;246;1220;-46
2022/01/06 08:43:51;;;;;;;;;;;20.40;38.90;;;;;;482703;246;1051;-46
2022/01/06 08:45:53;;;;;;;;;;;20.40;38.90;;;;;;482620;246;1113;-46
2022/01/06 08:47:55;;;;;;;;;;;20.40;38.90;;;;;;482604;246;1295;-46
2022/01/06 08:49:55;;;;;;;;;;;20.40;38.80;;;;;;482239;247;2364;-46
2022/01/06 08:51:57;;;;;;;;;;;20.40;38.80;;;;;;482457;246;1376;-46
2022/01/06 08:53:58;;;;;;;;;;;20.40;38.80;;;;;;482212;246;1127;-46
2022/01/06 08:55:59;;;;;;;;;;;20.40;38.80;;;;;;482207;246;2126;-47
2022/01/06 08:58:01;;;;;;;;;;;20.40;38.90;;;;;;482374;246;1082;-46
2022/01/06 09:00:02;;;;;;;;;;;20.40;38.80;;;;;;482293;246;1065;-46
2022/01/06 09:02:03;;;;;;;;;;;20.40;38.90;;;;;;482311;246;1353;-46
2022/01/06 09:04:05;;;;;;;;;;;20.40;38.90;;;;;;482421;246;1008;-46
2022/01/06 09:06:06;;;;;;;;;;;20.30;38.80;;;;;;482271;246;1232;-47
2022/01/06 09:08:07;;;;;;;;;;;20.40;38.90;;;;;;482276;246;1371;-46
2022/01/06 09:10:08;;;;;;;;;;;20.40;38.80;;;;;;482627;246;1021;-46
2022/01/06 09:12:16;;;;;;;;;;;20.40;38.90;;;;;;482426;246;1190;-46
2022/01/06 09:14:12;;;;;;;;;;;20.30;38.80;;;;;;481951;247;1325;-46
2022/01/06 09:16:13;;;;;;;;;;;20.30;38.80;;;;;;482408;246;2213;-46
2022/01/06 09:18:15;;;;;;;;;;;20.40;38.80;;;;;;482409;246;1078;-46
2022/01/06 09:20:16;;;;;;;;;;;20.40;38.80;;;;;;482387;246;1328;-47
2022/01/06 09:22:17;;;;;;;;;;;20.40;38.70;;;;;;482127;246;1199;-46
2022/01/06 09:24:19;;;;;;;;;;;20.40;38.70;;;;;;482351;246;1134;-46
2022/01/06 09:26:20;;;;;;;;;;;20.40;38.70;;;;;;482438;246;1064;-46
2022/01/06 09:28:21;;;;;;;;;;;20.40;38.70;;;;;;482354;246;1244;-47
2022/01/06 09:30:25;;;;;;;;;;;20.40;38.70;;;;;;482734;246;1060;-46
2022/01/06 09:32:25;;;;;;;;;;;20.40;38.70;;;;;;482310;247;2216;-46
2022/01/06 09:34:27;;;;;;;;;;;20.30;38.70;;;;;;482294;246;1064;-47
2022/01/06 09:36:28;;;;;;;;;;;20.30;38.70;;;;;;482382;246;2125;-46
2022/01/06 09:38:29;;;;;;;;;;;20.40;38.60;;;;;;482383;246;1072;-46
2022/01/06 09:40:31;;;;;;;;;;;20.30;38.60;;;;;;482303;246;1318;-46
2022/01/06 09:42:32;;;;;;;;;;;20.30;38.70;;;;;;482513;246;1354;-46
2022/01/06 09:44:33;;;;;;;;;;;20.30;38.60;;;;;;482719;246;1166;-46
2022/01/06 09:46:35;;;;;;;;;;;20.30;38.70;;;;;;482493;246;1312;-46
2022/01/06 09:48:36;;;;;;;;;;;20.30;38.60;;;;;;482298;246;1231;-46
2022/01/06 09:50:42;;;;;;;;;;;20.30;38.60;;;;;;482287;246;1264;-46
2022/01/06 09:52:39;;;;;;;;;;;20.30;38.70;;;;;;482254;247;2124;-46
2022/01/06 09:54:40;;;;;;;;;;;20.30;38.70;;;;;;482339;246;1020;-46
2022/01/06 09:56:41;;;;;;;;;;;20.30;38.60;;;;;;482428;246;2196;-46
2022/01/06 09:58:43;;;;;;;;;;;20.30;38.60;;;;;;482492;246;1001;-46
2022/01/06 10:00:46;;;;;;;;;;;20.30;38.60;;;;;;482330;246;1067;-45
2022/01/06 10:02:45;;;;;;;;;;;20.30;38.60;;;;;;482184;247;2302;-46
2022/01/06 10:04:48;;;;;;;;;;;20.30;38.50;;;;;;482537;246;1053;-46
2022/01/06 10:06:49;;;;;;;;;;;20.30;38.60;;;;;;482363;246;1306;-46
2022/01/06 10:08:50;;;;;;;;;;;20.30;38.60;;;;;;482379;246;1168;-46
2022/01/06 10:10:52;;;;;;;;;;;20.30;38.60;;;;;;482266;246;1315;-46
2022/01/06 10:12:53;;;;;;;;;;;20.30;38.60;;;;;;482372;246;1174;-46
2022/01/06 10:14:55;;;;;;;;;;;20.30;38.60;;;;;;482323;246;1061;-46
2022/01/06 10:16:56;;;;;;;;;;;20.30;38.60;;;;;;482184;246;2326;-46
2022/01/06 10:18:57;;;;;;;;;;;20.30;38.60;;;;;;482308;246;1238;-46
2022/01/06 10:20:58;;;;;;;;;;;20.30;38.50;;;;;;482177;246;1240;-46
2022/01/06 10:23:00;;;;;;;;;;;20.30;38.50;;;;;;482228;246;1214;-46
2022/01/06 10:25:01;;;;;;;;;;;20.30;38.40;;;;;;482748;246;1003;-47
2022/01/06 10:27:04;;;;;;;;;;;20.30;38.50;;;;;;482666;246;1318;-46
2022/01/06 10:29:04;;;;;;;;;;;20.30;38.50;;;;;;482671;246;2336;-46
2022/01/06 10:31:05;;;;;;;;;;;20.30;38.40;;;;;;482353;246;1184;-46
2022/01/06 10:33:06;;;;;;;;;;;20.30;38.40;;;;;;482700;246;1207;-46
2022/01/06 10:35:08;;;;;;;;;;;20.30;38.50;;;;;;482592;246;1074;-46
2022/01/06 10:37:09;;;;;;;;;;;20.30;38.50;;;;;;482223;246;2172;-46
2022/01/06 10:39:10;;;;;;;;;;;20.30;38.50;;;;;;482721;246;1137;-46
2022/01/06 10:41:12;;;;;;;;;;;20.30;38.40;;;;;;482606;246;1170;-46
2022/01/06 10:43:15;;;;;;;;;;;20.30;38.30;;;;;;482484;246;1051;-46
2022/01/06 10:45:17;;;;;;;;;;;20.30;38.30;;;;;;482160;247;2125;-46
2022/01/06 10:47:15;;;;;;;;;;;20.30;38.20;;;;;;482061;247;2248;-46
2022/01/06 10:49:17;;;;;;;;;;;20.30;38.30;;;;;;482287;246;1154;-46
2022/01/06 10:51:18;;;;;;;;;;;20.30;38.40;;;;;;482343;246;1237;-46
2022/01/06 10:53:20;;;;;;;;;;;20.30;38.40;;;;;;482317;246;1215;-46
2022/01/06 10:55:21;;;;;;;;;;;20.30;38.50;;;;;;482311;246;2126;-46
2022/01/06 10:57:22;;;;;;;;;;;20.30;38.40;;;;;;482349;246;1319;-46
2022/01/06 10:59:23;;;;;;;;;;;20.30;38.40;;;;;;482741;246;1071;-46
2022/01/06 11:01:25;;;;;;;;;;;20.40;38.10;;;;;;482408;246;1225;-46
2022/01/06 11:03:27;;;;;;;;;;;20.60;37.80;;;;;;482287;246;1076;-47
2022/01/06 11:05:27;;;;;;;;;;;20.80;37.40;;;;;;482586;246;2064;-47
2022/01/06 11:07:29;;;;;;;;;;;20.90;37.10;;;;;;482293;246;1557;-47
2022/01/06 11:09:30;;;;;;;;;;;21.10;36.80;;;;;;482738;246;1028;-47
2022/01/06 11:13:51;;;;;;;;;;;21.20;36.40;;;;;;482702;247;1035;-47
2022/01/06 11:15:52;;;;;;;;;;;21.40;36.30;;;;;;482238;246;2192;-47
2022/01/06 11:17:53;;;;;;;;;;;21.40;36.20;;;;;;482498;246;1227;-46
2022/01/06 11:19:55;;;;;;;;;;;21.40;36.10;;;;;;482703;246;1195;-46
2022/01/06 11:21:56;;;;;;;;;;;21.50;36.00;;;;;;482297;246;1547;-47
2022/01/06 11:23:57;;;;;;;;;;;21.50;35.90;;;;;;482312;246;1122;-46
2022/01/06 11:25:58;;;;;;;;;;;21.60;35.80;;;;;;482252;246;1421;-46
2022/01/06 11:28:00;;;;;;;;;;;21.60;35.70;;;;;;482309;246;1070;-47
2022/01/06 11:30:01;;;;;;;;;;;21.70;35.70;;;;;;482445;246;1060;-47
2022/01/06 11:32:02;;;;;;;;;;;21.70;35.60;;;;;;482222;246;1367;-46
2022/01/06 11:34:04;;;;;;;;;;;21.70;35.50;;;;;;482573;246;1053;-46
2022/01/06 11:36:05;;;;;;;;;;;21.80;35.50;;;;;;482328;246;2137;-47
2022/01/06 11:38:07;;;;;;;;;;;21.80;35.40;;;;;;482219;246;1235;-47
2022/01/06 11:40:08;;;;;;;;;;;21.90;35.40;;;;;;482777;246;1077;-47
2022/01/06 11:42:09;;;;;;;;;;;21.90;35.30;;;;;;482650;246;1124;-47
2022/01/06 11:44:10;;;;;;;;;;;21.90;35.30;;;;;;482388;246;1008;-47
2022/01/06 11:46:12;;;;;;;;;;;21.90;35.20;;;;;;482692;243;1321;-46
2022/01/06 11:48:14;;;;;;;;;;;22.00;35.20;;;;;;482490;246;1278;-47
2022/01/06 11:50:14;;;;;;;;;;;22.00;35.20;;;;;;482484;246;2377;-46
2022/01/06 11:52:16;;;;;;;;;;;22.00;35.10;;;;;;482253;246;1544;-47
2022/01/06 11:54:17;;;;;;;;;;;22.00;35.10;;;;;;482689;246;1264;-47
2022/01/06 11:56:18;;;;;;;;;;;22.00;35.00;;;;;;482618;246;2130;-46
2022/01/06 11:58:21;;;;;;;;;;;22.10;35.00;;;;;;482726;246;1196;-47
2022/01/06 12:00:21;;;;;;;;;;;22.10;34.90;;;;;;482674;247;2184;-47
2022/01/06 12:02:22;;;;;;;;;;;22.10;34.90;;;;;;482229;246;1539;-47
2022/01/06 12:04:26;;;;;;;;;;;22.10;34.90;;;;;;482713;246;1029;-47